sensor_id;sensor_type;location;lat;lon;timestamp;P1;durP1;ratioP1;P2;durP2;ratioP2
41689;SDS011;27372;42.658;23.256;2023-04-12T00:00:16;16.80;;;9.30;;
41689;SDS011;27372;42.658;23.256;2023-04-12T00:02:41;15.55;;;9.20;;
41689;SDS011;27372;42.658;23.256;2023-04-12T00:05:08;12.70;;;8.27;;
41689;SDS011;27372;42.658;23.256;2023-04-12T00:07:35;14.43;;;9.07;;
41689;SDS011;27372;42.658;23.256;2023-04-12T00:10:03;13.73;;;9.52;;
41689;SDS011;27372;42.658;23.256;2023-04-12T00:12:30;13.20;;;8.23;;
41689;SDS011;27372;42.658;23.256;2023-04-12T00:14:55;18.80;;;9.15;;
41689;SDS011;27372;42.658;23.256;2023-04-12T00:17:20;16.00;;;10.75;;
41689;SDS011;27372;42.658;23.256;2023-04-12T00:19:46;12.23;;;7.50;;
41689;SDS011;27372;42.658;23.256;2023-04-12T00:22:13;14.30;;;9.55;;
41689;SDS011;27372;42.658;23.256;2023-04-12T00:24:39;12.38;;;8.48;;
41689;SDS011;27372;42.658;23.256;2023-04-12T00:27:06;13.80;;;9.77;;
41689;SDS011;27372;42.658;23.256;2023-04-12T00:29:32;14.88;;;10.20;;
41689;SDS011;27372;42.658;23.256;2023-04-12T00:31:57;14.90;;;10.57;;
41689;SDS011;27372;42.658;23.256;2023-04-12T00:34:27;15.48;;;9.80;;
41689;SDS011;27372;42.658;23.256;2023-04-12T00:36:53;13.85;;;8.80;;
41689;SDS011;27372;42.658;23.256;2023-04-12T00:39:19;17.17;;;9.15;;
41689;SDS011;27372;42.658;23.256;2023-04-12T00:41:44;15.05;;;10.38;;
41689;SDS011;27372;42.658;23.256;2023-04-12T00:44:10;16.33;;;9.95;;
41689;SDS011;27372;42.658;23.256;2023-04-12T00:46:35;15.38;;;9.80;;
41689;SDS011;27372;42.658;23.256;2023-04-12T00:49:02;16.60;;;10.13;;
41689;SDS011;27372;42.658;23.256;2023-04-12T00:51:27;15.93;;;9.70;;
41689;SDS011;27372;42.658;23.256;2023-04-12T00:53:57;17.90;;;10.05;;
41689;SDS011;27372;42.658;23.256;2023-04-12T00:56:24;17.80;;;10.00;;
41689;SDS011;27372;42.658;23.256;2023-04-12T00:58:51;17.77;;;10.18;;
41689;SDS011;27372;42.658;23.256;2023-04-12T01:01:17;16.83;;;10.32;;
41689;SDS011;27372;42.658;23.256;2023-04-12T01:03:47;19.13;;;11.48;;
41689;SDS011;27372;42.658;23.256;2023-04-12T01:09:02;15.15;;;9.80;;
41689;SDS011;27372;42.658;23.256;2023-04-12T01:11:55;17.98;;;10.90;;
41689;SDS011;27372;42.658;23.256;2023-04-12T01:14:50;16.48;;;9.98;;
41689;SDS011;27372;42.658;23.256;2023-04-12T01:17:25;16.55;;;10.77;;
41689;SDS011;27372;42.658;23.256;2023-04-12T01:28:13;16.52;;;10.90;;
41689;SDS011;27372;42.658;23.256;2023-04-12T01:30:42;16.52;;;10.02;;
41689;SDS011;27372;42.658;23.256;2023-04-12T01:33:10;18.52;;;11.70;;
41689;SDS011;27372;42.658;23.256;2023-04-12T01:35:36;17.50;;;11.27;;
41689;SDS011;27372;42.658;23.256;2023-04-12T01:38:02;19.50;;;11.00;;
41689;SDS011;27372;42.658;23.256;2023-04-12T01:40:29;14.13;;;9.57;;
41689;SDS011;27372;42.658;23.256;2023-04-12T01:43:11;15.43;;;10.93;;
41689;SDS011;27372;42.658;23.256;2023-04-12T01:45:38;18.23;;;9.98;;
41689;SDS011;27372;42.658;23.256;2023-04-12T01:48:05;15.70;;;9.90;;
41689;SDS011;27372;42.658;23.256;2023-04-12T01:53:10;17.73;;;11.25;;
41689;SDS011;27372;42.658;23.256;2023-04-12T01:55:38;14.93;;;9.95;;
41689;SDS011;27372;42.658;23.256;2023-04-12T01:58:06;17.33;;;11.32;;
41689;SDS011;27372;42.658;23.256;2023-04-12T02:00:33;17.73;;;10.93;;
41689;SDS011;27372;42.658;23.256;2023-04-12T02:03:00;18.30;;;10.68;;
41689;SDS011;27372;42.658;23.256;2023-04-12T02:05:27;17.45;;;11.45;;
41689;SDS011;27372;42.658;23.256;2023-04-12T02:07:52;18.00;;;11.27;;
41689;SDS011;27372;42.658;23.256;2023-04-12T02:10:27;17.15;;;10.55;;
41689;SDS011;27372;42.658;23.256;2023-04-12T02:12:54;17.10;;;11.23;;
41689;SDS011;27372;42.658;23.256;2023-04-12T02:15:22;19.48;;;11.70;;
41689;SDS011;27372;42.658;23.256;2023-04-12T02:17:53;16.75;;;10.85;;
41689;SDS011;27372;42.658;23.256;2023-04-12T02:20:20;16.73;;;10.95;;
41689;SDS011;27372;42.658;23.256;2023-04-12T02:22:46;14.30;;;9.32;;
41689;SDS011;27372;42.658;23.256;2023-04-12T02:25:12;17.45;;;10.48;;
41689;SDS011;27372;42.658;23.256;2023-04-12T02:27:37;17.92;;;11.55;;
41689;SDS011;27372;42.658;23.256;2023-04-12T02:30:03;18.35;;;11.93;;
41689;SDS011;27372;42.658;23.256;2023-04-12T02:32:29;17.58;;;11.68;;
41689;SDS011;27372;42.658;23.256;2023-04-12T02:34:57;20.23;;;12.23;;
41689;SDS011;27372;42.658;23.256;2023-04-12T02:37:24;18.05;;;11.50;;
41689;SDS011;27372;42.658;23.256;2023-04-12T02:39:51;18.80;;;12.33;;
41689;SDS011;27372;42.658;23.256;2023-04-12T02:42:20;18.60;;;12.48;;
41689;SDS011;27372;42.658;23.256;2023-04-12T02:44:46;18.45;;;10.82;;
41689;SDS011;27372;42.658;23.256;2023-04-12T02:47:12;17.48;;;11.48;;
41689;SDS011;27372;42.658;23.256;2023-04-12T02:49:37;15.38;;;10.10;;
41689;SDS011;27372;42.658;23.256;2023-04-12T02:52:03;21.70;;;11.02;;
41689;SDS011;27372;42.658;23.256;2023-04-12T02:54:28;17.77;;;11.27;;
41689;SDS011;27372;42.658;23.256;2023-04-12T02:56:53;16.40;;;11.23;;
41689;SDS011;27372;42.658;23.256;2023-04-12T02:59:19;17.25;;;10.65;;
41689;SDS011;27372;42.658;23.256;2023-04-12T03:01:45;15.45;;;10.10;;
41689;SDS011;27372;42.658;23.256;2023-04-12T03:04:10;19.15;;;12.45;;
41689;SDS011;27372;42.658;23.256;2023-04-12T03:06:36;17.77;;;12.18;;
41689;SDS011;27372;42.658;23.256;2023-04-12T03:09:04;20.13;;;12.63;;
41689;SDS011;27372;42.658;23.256;2023-04-12T03:11:29;19.60;;;13.10;;
41689;SDS011;27372;42.658;23.256;2023-04-12T03:13:55;19.67;;;13.38;;
41689;SDS011;27372;42.658;23.256;2023-04-12T03:16:24;21.63;;;14.00;;
41689;SDS011;27372;42.658;23.256;2023-04-12T03:18:53;25.23;;;14.88;;
41689;SDS011;27372;42.658;23.256;2023-04-12T03:21:20;24.75;;;15.05;;
41689;SDS011;27372;42.658;23.256;2023-04-12T03:23:46;24.25;;;14.15;;
41689;SDS011;27372;42.658;23.256;2023-04-12T03:26:11;23.60;;;14.25;;
41689;SDS011;27372;42.658;23.256;2023-04-12T03:28:37;22.48;;;14.27;;
41689;SDS011;27372;42.658;23.256;2023-04-12T03:31:03;24.92;;;14.77;;
41689;SDS011;27372;42.658;23.256;2023-04-12T03:33:28;22.40;;;14.85;;
41689;SDS011;27372;42.658;23.256;2023-04-12T03:35:54;21.08;;;14.13;;
41689;SDS011;27372;42.658;23.256;2023-04-12T03:38:20;24.73;;;13.77;;
41689;SDS011;27372;42.658;23.256;2023-04-12T03:40:45;21.10;;;13.95;;
41689;SDS011;27372;42.658;23.256;2023-04-12T03:43:10;21.63;;;14.80;;
41689;SDS011;27372;42.658;23.256;2023-04-12T03:45:36;21.83;;;12.88;;
41689;SDS011;27372;42.658;23.256;2023-04-12T03:48:01;20.40;;;11.85;;
41689;SDS011;27372;42.658;23.256;2023-04-12T03:50:27;19.23;;;12.50;;
41689;SDS011;27372;42.658;23.256;2023-04-12T03:52:53;22.20;;;14.68;;
41689;SDS011;27372;42.658;23.256;2023-04-12T03:55:19;20.27;;;11.40;;
41689;SDS011;27372;42.658;23.256;2023-04-12T03:57:45;21.05;;;14.32;;
41689;SDS011;27372;42.658;23.256;2023-04-12T04:00:10;21.50;;;13.98;;
41689;SDS011;27372;42.658;23.256;2023-04-12T04:02:36;23.35;;;13.50;;
41689;SDS011;27372;42.658;23.256;2023-04-12T04:05:02;23.55;;;13.48;;
41689;SDS011;27372;42.658;23.256;2023-04-12T04:07:28;23.23;;;14.60;;
41689;SDS011;27372;42.658;23.256;2023-04-12T04:09:55;21.52;;;14.50;;
41689;SDS011;27372;42.658;23.256;2023-04-12T04:12:21;22.67;;;14.80;;
41689;SDS011;27372;42.658;23.256;2023-04-12T04:14:47;23.13;;;15.02;;
41689;SDS011;27372;42.658;23.256;2023-04-12T04:17:12;20.55;;;13.48;;
41689;SDS011;27372;42.658;23.256;2023-04-12T04:19:41;22.02;;;14.55;;
41689;SDS011;27372;42.658;23.256;2023-04-12T04:22:06;24.42;;;14.63;;
41689;SDS011;27372;42.658;23.256;2023-04-12T04:24:31;21.38;;;14.27;;
41689;SDS011;27372;42.658;23.256;2023-04-12T04:26:58;22.35;;;14.35;;
41689;SDS011;27372;42.658;23.256;2023-04-12T04:29:23;21.40;;;13.98;;
41689;SDS011;27372;42.658;23.256;2023-04-12T04:31:49;21.30;;;14.43;;
41689;SDS011;27372;42.658;23.256;2023-04-12T04:34:15;18.60;;;11.65;;
41689;SDS011;27372;42.658;23.256;2023-04-12T04:36:40;22.27;;;13.57;;
41689;SDS011;27372;42.658;23.256;2023-04-12T04:39:07;21.20;;;12.18;;
41689;SDS011;27372;42.658;23.256;2023-04-12T04:41:33;20.88;;;13.30;;
41689;SDS011;27372;42.658;23.256;2023-04-12T04:44:03;20.30;;;13.32;;
41689;SDS011;27372;42.658;23.256;2023-04-12T04:46:37;15.50;;;8.60;;
41689;SDS011;27372;42.658;23.256;2023-04-12T04:51:29;19.05;;;11.00;;
41689;SDS011;27372;42.658;23.256;2023-04-12T04:53:55;17.23;;;10.88;;
41689;SDS011;27372;42.658;23.256;2023-04-12T04:56:20;15.85;;;10.45;;
41689;SDS011;27372;42.658;23.256;2023-04-12T04:58:47;18.23;;;11.13;;
41689;SDS011;27372;42.658;23.256;2023-04-12T05:01:13;17.30;;;10.80;;
41689;SDS011;27372;42.658;23.256;2023-04-12T05:03:41;17.83;;;11.05;;
41689;SDS011;27372;42.658;23.256;2023-04-12T05:06:08;13.68;;;8.43;;
41689;SDS011;27372;42.658;23.256;2023-04-12T05:08:34;14.00;;;9.27;;
41689;SDS011;27372;42.658;23.256;2023-04-12T05:10:59;16.40;;;10.55;;
41689;SDS011;27372;42.658;23.256;2023-04-12T05:13:25;14.95;;;9.52;;
41689;SDS011;27372;42.658;23.256;2023-04-12T05:15:50;14.43;;;8.85;;
41689;SDS011;27372;42.658;23.256;2023-04-12T05:18:16;13.05;;;8.55;;
41689;SDS011;27372;42.658;23.256;2023-04-12T05:20:42;15.80;;;8.60;;
41689;SDS011;27372;42.658;23.256;2023-04-12T05:23:07;10.90;;;8.25;;
41689;SDS011;27372;42.658;23.256;2023-04-12T05:25:36;15.63;;;8.85;;
41689;SDS011;27372;42.658;23.256;2023-04-12T05:28:08;12.35;;;7.82;;
41689;SDS011;27372;42.658;23.256;2023-04-12T05:30:38;13.15;;;7.90;;
41689;SDS011;27372;42.658;23.256;2023-04-12T05:33:04;10.93;;;7.43;;
41689;SDS011;27372;42.658;23.256;2023-04-12T05:35:29;13.98;;;8.40;;
41689;SDS011;27372;42.658;23.256;2023-04-12T05:37:55;13.18;;;7.53;;
41689;SDS011;27372;42.658;23.256;2023-04-12T05:40:20;10.95;;;7.05;;
41689;SDS011;27372;42.658;23.256;2023-04-12T05:42:46;10.20;;;7.03;;
41689;SDS011;27372;42.658;23.256;2023-04-12T05:45:11;10.68;;;6.82;;
41689;SDS011;27372;42.658;23.256;2023-04-12T05:47:37;9.85;;;6.30;;
41689;SDS011;27372;42.658;23.256;2023-04-12T05:50:02;10.50;;;5.45;;
41689;SDS011;27372;42.658;23.256;2023-04-12T05:52:28;8.88;;;4.50;;
41689;SDS011;27372;42.658;23.256;2023-04-12T05:54:53;8.10;;;4.90;;
41689;SDS011;27372;42.658;23.256;2023-04-12T05:57:18;6.93;;;4.88;;
41689;SDS011;27372;42.658;23.256;2023-04-12T05:59:44;8.30;;;4.93;;
41689;SDS011;27372;42.658;23.256;2023-04-12T06:02:09;7.53;;;5.00;;
41689;SDS011;27372;42.658;23.256;2023-04-12T06:04:35;7.68;;;4.68;;
41689;SDS011;27372;42.658;23.256;2023-04-12T06:07:02;7.57;;;5.15;;
41689;SDS011;27372;42.658;23.256;2023-04-12T06:09:29;10.27;;;5.13;;
41689;SDS011;27372;42.658;23.256;2023-04-12T06:11:55;8.85;;;4.85;;
41689;SDS011;27372;42.658;23.256;2023-04-12T06:14:21;8.18;;;4.88;;
41689;SDS011;27372;42.658;23.256;2023-04-12T06:16:46;9.15;;;5.35;;
41689;SDS011;27372;42.658;23.256;2023-04-12T06:19:12;8.20;;;5.00;;
41689;SDS011;27372;42.658;23.256;2023-04-12T06:21:37;9.25;;;6.03;;
41689;SDS011;27372;42.658;23.256;2023-04-12T06:24:02;7.20;;;5.13;;
41689;SDS011;27372;42.658;23.256;2023-04-12T06:26:28;8.05;;;5.00;;
41689;SDS011;27372;42.658;23.256;2023-04-12T06:28:54;7.57;;;4.85;;
41689;SDS011;27372;42.658;23.256;2023-04-12T06:31:19;7.68;;;4.63;;
41689;SDS011;27372;42.658;23.256;2023-04-12T06:33:45;7.45;;;4.80;;
41689;SDS011;27372;42.658;23.256;2023-04-12T06:36:11;6.32;;;4.45;;
41689;SDS011;27372;42.658;23.256;2023-04-12T06:38:38;5.60;;;4.20;;
41689;SDS011;27372;42.658;23.256;2023-04-12T06:41:04;9.18;;;4.63;;
41689;SDS011;27372;42.658;23.256;2023-04-12T06:43:30;7.90;;;4.30;;
41689;SDS011;27372;42.658;23.256;2023-04-12T06:45:55;5.82;;;4.50;;
41689;SDS011;27372;42.658;23.256;2023-04-12T06:48:21;6.32;;;4.03;;
41689;SDS011;27372;42.658;23.256;2023-04-12T06:50:46;6.97;;;4.40;;
41689;SDS011;27372;42.658;23.256;2023-04-12T06:53:12;5.78;;;3.90;;
41689;SDS011;27372;42.658;23.256;2023-04-12T06:55:37;6.38;;;4.45;;
41689;SDS011;27372;42.658;23.256;2023-04-12T06:58:03;6.10;;;4.22;;
41689;SDS011;27372;42.658;23.256;2023-04-12T07:00:28;5.35;;;4.13;;
41689;SDS011;27372;42.658;23.256;2023-04-12T07:02:54;7.32;;;4.07;;
41689;SDS011;27372;42.658;23.256;2023-04-12T07:05:19;5.18;;;3.92;;
41689;SDS011;27372;42.658;23.256;2023-04-12T07:07:47;7.05;;;4.38;;
41689;SDS011;27372;42.658;23.256;2023-04-12T07:10:13;8.23;;;3.42;;
41689;SDS011;27372;42.658;23.256;2023-04-12T07:12:38;4.25;;;3.85;;
41689;SDS011;27372;42.658;23.256;2023-04-12T07:15:04;4.07;;;3.50;;
41689;SDS011;27372;42.658;23.256;2023-04-12T07:17:30;6.18;;;4.30;;
41689;SDS011;27372;42.658;23.256;2023-04-12T07:19:55;4.97;;;3.85;;
41689;SDS011;27372;42.658;23.256;2023-04-12T07:22:21;6.93;;;4.82;;
41689;SDS011;27372;42.658;23.256;2023-04-12T07:24:47;7.68;;;5.13;;
41689;SDS011;27372;42.658;23.256;2023-04-12T07:27:13;5.45;;;4.75;;
41689;SDS011;27372;42.658;23.256;2023-04-12T07:29:39;9.60;;;4.85;;
41689;SDS011;27372;42.658;23.256;2023-04-12T07:32:08;5.35;;;3.97;;
41689;SDS011;27372;42.658;23.256;2023-04-12T07:34:35;5.53;;;4.53;;
41689;SDS011;27372;42.658;23.256;2023-04-12T07:37:02;4.45;;;3.90;;
41689;SDS011;27372;42.658;23.256;2023-04-12T07:39:30;5.18;;;4.25;;
41689;SDS011;27372;42.658;23.256;2023-04-12T07:41:56;6.43;;;4.38;;
41689;SDS011;27372;42.658;23.256;2023-04-12T07:44:22;5.95;;;4.20;;
41689;SDS011;27372;42.658;23.256;2023-04-12T07:46:47;6.03;;;4.13;;
41689;SDS011;27372;42.658;23.256;2023-04-12T07:49:13;6.63;;;3.92;;
41689;SDS011;27372;42.658;23.256;2023-04-12T07:51:38;6.88;;;4.57;;
41689;SDS011;27372;42.658;23.256;2023-04-12T07:54:03;5.78;;;4.10;;
41689;SDS011;27372;42.658;23.256;2023-04-12T07:56:32;4.50;;;3.83;;
41689;SDS011;27372;42.658;23.256;2023-04-12T07:58:58;4.43;;;3.40;;
41689;SDS011;27372;42.658;23.256;2023-04-12T08:01:23;4.40;;;3.25;;
41689;SDS011;27372;42.658;23.256;2023-04-12T08:03:48;3.88;;;3.33;;
41689;SDS011;27372;42.658;23.256;2023-04-12T08:06:14;4.30;;;3.00;;
41689;SDS011;27372;42.658;23.256;2023-04-12T08:08:39;5.65;;;2.78;;
41689;SDS011;27372;42.658;23.256;2023-04-12T08:11:05;2.33;;;1.98;;
41689;SDS011;27372;42.658;23.256;2023-04-12T08:13:31;3.83;;;2.47;;
41689;SDS011;27372;42.658;23.256;2023-04-12T08:15:57;3.85;;;2.67;;
41689;SDS011;27372;42.658;23.256;2023-04-12T08:18:22;4.20;;;2.50;;
41689;SDS011;27372;42.658;23.256;2023-04-12T08:20:48;3.95;;;2.70;;
41689;SDS011;27372;42.658;23.256;2023-04-12T08:23:13;5.28;;;2.50;;
41689;SDS011;27372;42.658;23.256;2023-04-12T08:25:39;3.95;;;2.30;;
41689;SDS011;27372;42.658;23.256;2023-04-12T08:28:05;4.60;;;2.50;;
41689;SDS011;27372;42.658;23.256;2023-04-12T08:30:32;4.60;;;2.17;;
41689;SDS011;27372;42.658;23.256;2023-04-12T08:32:58;4.10;;;2.72;;
41689;SDS011;27372;42.658;23.256;2023-04-12T08:35:23;3.10;;;2.20;;
41689;SDS011;27372;42.658;23.256;2023-04-12T08:37:49;2.88;;;2.10;;
41689;SDS011;27372;42.658;23.256;2023-04-12T08:40:14;3.38;;;2.20;;
41689;SDS011;27372;42.658;23.256;2023-04-12T08:42:40;2.75;;;2.40;;
41689;SDS011;27372;42.658;23.256;2023-04-12T08:45:07;4.60;;;2.00;;
41689;SDS011;27372;42.658;23.256;2023-04-12T08:47:35;4.97;;;2.20;;
41689;SDS011;27372;42.658;23.256;2023-04-12T08:50:02;3.58;;;1.92;;
41689;SDS011;27372;42.658;23.256;2023-04-12T08:52:32;3.00;;;2.05;;
41689;SDS011;27372;42.658;23.256;2023-04-12T08:55:00;4.07;;;2.00;;
41689;SDS011;27372;42.658;23.256;2023-04-12T08:57:27;2.95;;;2.00;;
41689;SDS011;27372;42.658;23.256;2023-04-12T08:59:53;3.00;;;2.17;;
41689;SDS011;27372;42.658;23.256;2023-04-12T09:02:19;3.38;;;2.28;;
41689;SDS011;27372;42.658;23.256;2023-04-12T09:04:46;3.65;;;1.90;;
41689;SDS011;27372;42.658;23.256;2023-04-12T09:07:12;3.92;;;2.22;;
41689;SDS011;27372;42.658;23.256;2023-04-12T09:09:41;3.28;;;1.90;;
41689;SDS011;27372;42.658;23.256;2023-04-12T09:12:08;5.00;;;2.13;;
41689;SDS011;27372;42.658;23.256;2023-04-12T09:14:35;3.45;;;2.10;;
41689;SDS011;27372;42.658;23.256;2023-04-12T09:17:02;4.15;;;2.10;;
41689;SDS011;27372;42.658;23.256;2023-04-12T09:19:31;5.93;;;2.25;;
41689;SDS011;27372;42.658;23.256;2023-04-12T09:21:57;2.53;;;1.90;;
41689;SDS011;27372;42.658;23.256;2023-04-12T09:24:23;3.88;;;2.00;;
41689;SDS011;27372;42.658;23.256;2023-04-12T09:27:09;2.92;;;1.98;;
41689;SDS011;27372;42.658;23.256;2023-04-12T09:29:35;2.20;;;1.98;;
41689;SDS011;27372;42.658;23.256;2023-04-12T09:32:06;3.03;;;1.90;;
41689;SDS011;27372;42.658;23.256;2023-04-12T09:34:33;3.92;;;2.03;;
41689;SDS011;27372;42.658;23.256;2023-04-12T09:37:21;2.92;;;2.00;;
41689;SDS011;27372;42.658;23.256;2023-04-12T09:39:45;5.30;;;2.08;;
41689;SDS011;27372;42.658;23.256;2023-04-12T09:42:11;3.33;;;2.00;;
41689;SDS011;27372;42.658;23.256;2023-04-12T09:44:39;2.70;;;1.70;;
41689;SDS011;27372;42.658;23.256;2023-04-12T09:47:04;4.47;;;1.92;;
41689;SDS011;27372;42.658;23.256;2023-04-12T09:49:40;5.20;;;1.70;;
41689;SDS011;27372;42.658;23.256;2023-04-12T09:52:07;2.58;;;1.88;;
41689;SDS011;27372;42.658;23.256;2023-04-12T09:54:44;2.53;;;2.00;;
41689;SDS011;27372;42.658;23.256;2023-04-12T09:57:12;5.68;;;1.60;;
41689;SDS011;27372;42.658;23.256;2023-04-12T09:59:42;3.75;;;2.13;;
41689;SDS011;27372;42.658;23.256;2023-04-12T10:02:15;4.80;;;1.60;;
41689;SDS011;27372;42.658;23.256;2023-04-12T10:04:42;2.92;;;1.42;;
41689;SDS011;27372;42.658;23.256;2023-04-12T10:07:08;2.88;;;1.60;;
41689;SDS011;27372;42.658;23.256;2023-04-12T10:09:37;5.22;;;1.52;;
41689;SDS011;27372;42.658;23.256;2023-04-12T10:12:04;2.42;;;1.40;;
41689;SDS011;27372;42.658;23.256;2023-04-12T10:14:31;13.48;;;2.47;;
41689;SDS011;27372;42.658;23.256;2023-04-12T10:16:57;4.22;;;1.75;;
41689;SDS011;27372;42.658;23.256;2023-04-12T10:19:26;3.92;;;2.38;;
41689;SDS011;27372;42.658;23.256;2023-04-12T10:21:54;3.80;;;1.45;;
41689;SDS011;27372;42.658;23.256;2023-04-12T10:24:21;3.58;;;1.50;;
41689;SDS011;27372;42.658;23.256;2023-04-12T10:26:51;3.90;;;1.60;;
41689;SDS011;27372;42.658;23.256;2023-04-12T10:29:26;2.47;;;1.50;;
41689;SDS011;27372;42.658;23.256;2023-04-12T10:31:54;5.32;;;1.48;;
41689;SDS011;27372;42.658;23.256;2023-04-12T10:34:27;4.15;;;1.75;;
41689;SDS011;27372;42.658;23.256;2023-04-12T10:39:36;1.45;;;1.30;;
41689;SDS011;27372;42.658;23.256;2023-04-12T10:42:19;2.15;;;1.40;;
41689;SDS011;27372;42.658;23.256;2023-04-12T10:44:51;2.85;;;1.38;;
41689;SDS011;27372;42.658;23.256;2023-04-12T10:50:22;4.13;;;1.45;;
41689;SDS011;27372;42.658;23.256;2023-04-12T10:55:46;4.43;;;1.50;;
41689;SDS011;27372;42.658;23.256;2023-04-12T11:01:14;2.25;;;1.50;;
41689;SDS011;27372;42.658;23.256;2023-04-12T11:09:18;2.35;;;1.40;;
41689;SDS011;27372;42.658;23.256;2023-04-12T11:11:45;3.92;;;1.40;;
41689;SDS011;27372;42.658;23.256;2023-04-12T11:14:12;4.15;;;1.40;;
41689;SDS011;27372;42.658;23.256;2023-04-12T11:22:25;1.45;;;1.20;;
41689;SDS011;27372;42.658;23.256;2023-04-12T11:24:56;1.47;;;1.20;;
41689;SDS011;27372;42.658;23.256;2023-04-12T11:27:23;1.98;;;1.30;;
41689;SDS011;27372;42.658;23.256;2023-04-12T11:29:50;2.80;;;1.30;;
41689;SDS011;27372;42.658;23.256;2023-04-12T11:32:19;3.17;;;1.20;;
41689;SDS011;27372;42.658;23.256;2023-04-12T11:34:45;12.43;;;1.70;;
41689;SDS011;27372;42.658;23.256;2023-04-12T11:37:11;7.80;;;1.92;;
41689;SDS011;27372;42.658;23.256;2023-04-12T11:39:38;3.28;;;1.60;;
41689;SDS011;27372;42.658;23.256;2023-04-12T11:42:05;3.08;;;1.80;;
41689;SDS011;27372;42.658;23.256;2023-04-12T11:44:33;1.67;;;1.40;;
41689;SDS011;27372;42.658;23.256;2023-04-12T11:46:58;1.33;;;1.17;;
41689;SDS011;27372;42.658;23.256;2023-04-12T11:49:25;3.30;;;1.13;;
41689;SDS011;27372;42.658;23.256;2023-04-12T11:51:59;1.40;;;1.30;;
41689;SDS011;27372;42.658;23.256;2023-04-12T11:54:29;1.35;;;1.20;;
41689;SDS011;27372;42.658;23.256;2023-04-12T11:56:57;1.65;;;1.30;;
41689;SDS011;27372;42.658;23.256;2023-04-12T11:59:33;1.20;;;1.10;;
41689;SDS011;27372;42.658;23.256;2023-04-12T12:01:59;1.85;;;1.40;;
41689;SDS011;27372;42.658;23.256;2023-04-12T12:04:28;3.90;;;1.30;;
41689;SDS011;27372;42.658;23.256;2023-04-12T12:06:57;4.72;;;1.40;;
41689;SDS011;27372;42.658;23.256;2023-04-12T12:09:23;1.75;;;1.23;;
41689;SDS011;27372;42.658;23.256;2023-04-12T12:11:50;4.28;;;1.40;;
41689;SDS011;27372;42.658;23.256;2023-04-12T12:14:19;3.50;;;1.40;;
41689;SDS011;27372;42.658;23.256;2023-04-12T12:16:52;1.83;;;1.52;;
41689;SDS011;27372;42.658;23.256;2023-04-12T12:19:26;4.07;;;1.00;;
41689;SDS011;27372;42.658;23.256;2023-04-12T12:21:51;4.60;;;1.30;;
41689;SDS011;27372;42.658;23.256;2023-04-12T12:24:17;1.60;;;1.20;;
41689;SDS011;27372;42.658;23.256;2023-04-12T12:26:42;2.25;;;1.58;;
41689;SDS011;27372;42.658;23.256;2023-04-12T12:29:15;4.72;;;1.60;;
41689;SDS011;27372;42.658;23.256;2023-04-12T12:31:46;4.95;;;1.95;;
41689;SDS011;27372;42.658;23.256;2023-04-12T12:34:13;3.38;;;1.25;;
41689;SDS011;27372;42.658;23.256;2023-04-12T12:36:38;1.48;;;1.23;;
41689;SDS011;27372;42.658;23.256;2023-04-12T12:39:07;2.10;;;1.60;;
41689;SDS011;27372;42.658;23.256;2023-04-12T12:41:37;6.25;;;1.92;;
41689;SDS011;27372;42.658;23.256;2023-04-12T12:44:03;2.88;;;1.60;;
41689;SDS011;27372;42.658;23.256;2023-04-12T12:46:29;4.18;;;1.50;;
41689;SDS011;27372;42.658;23.256;2023-04-12T12:48:54;3.70;;;1.40;;
41689;SDS011;27372;42.658;23.256;2023-04-12T12:51:20;2.80;;;1.25;;
41689;SDS011;27372;42.658;23.256;2023-04-12T12:53:45;1.98;;;1.27;;
41689;SDS011;27372;42.658;23.256;2023-04-12T12:56:12;2.40;;;1.40;;
41689;SDS011;27372;42.658;23.256;2023-04-12T12:58:41;1.40;;;1.30;;
41689;SDS011;27372;42.658;23.256;2023-04-12T13:01:06;3.95;;;1.50;;
41689;SDS011;27372;42.658;23.256;2023-04-12T13:03:32;3.45;;;1.50;;
41689;SDS011;27372;42.658;23.256;2023-04-12T13:05:58;3.33;;;1.25;;
41689;SDS011;27372;42.658;23.256;2023-04-12T13:08:24;1.98;;;1.38;;
41689;SDS011;27372;42.658;23.256;2023-04-12T13:10:50;2.67;;;1.50;;
41689;SDS011;27372;42.658;23.256;2023-04-12T13:13:16;3.97;;;1.50;;
41689;SDS011;27372;42.658;23.256;2023-04-12T13:15:42;1.70;;;1.20;;
41689;SDS011;27372;42.658;23.256;2023-04-12T13:18:12;1.38;;;1.25;;
41689;SDS011;27372;42.658;23.256;2023-04-12T13:20:41;2.15;;;1.25;;
41689;SDS011;27372;42.658;23.256;2023-04-12T13:23:06;1.20;;;1.10;;
41689;SDS011;27372;42.658;23.256;2023-04-12T13:25:32;1.63;;;1.20;;
41689;SDS011;27372;42.658;23.256;2023-04-12T13:27:58;2.70;;;1.30;;
41689;SDS011;27372;42.658;23.256;2023-04-12T13:30:23;2.53;;;1.65;;
41689;SDS011;27372;42.658;23.256;2023-04-12T13:32:48;1.35;;;1.20;;
41689;SDS011;27372;42.658;23.256;2023-04-12T13:35:14;2.47;;;1.20;;
41689;SDS011;27372;42.658;23.256;2023-04-12T13:37:39;2.63;;;1.60;;
41689;SDS011;27372;42.658;23.256;2023-04-12T13:40:06;3.40;;;1.17;;
41689;SDS011;27372;42.658;23.256;2023-04-12T13:42:32;2.22;;;1.40;;
41689;SDS011;27372;42.658;23.256;2023-04-12T13:44:57;4.38;;;1.70;;
41689;SDS011;27372;42.658;23.256;2023-04-12T13:47:23;1.60;;;1.23;;
41689;SDS011;27372;42.658;23.256;2023-04-12T13:49:48;1.77;;;1.20;;
41689;SDS011;27372;42.658;23.256;2023-04-12T13:52:14;2.28;;;1.30;;
41689;SDS011;27372;42.658;23.256;2023-04-12T13:54:39;4.88;;;1.33;;
41689;SDS011;27372;42.658;23.256;2023-04-12T13:57:07;1.83;;;1.20;;
41689;SDS011;27372;42.658;23.256;2023-04-12T13:59:32;2.13;;;1.27;;
41689;SDS011;27372;42.658;23.256;2023-04-12T14:01:58;3.25;;;1.33;;
41689;SDS011;27372;42.658;23.256;2023-04-12T14:04:26;4.40;;;1.20;;
41689;SDS011;27372;42.658;23.256;2023-04-12T14:06:52;1.80;;;1.20;;
41689;SDS011;27372;42.658;23.256;2023-04-12T14:09:27;1.92;;;1.30;;
41689;SDS011;27372;42.658;23.256;2023-04-12T14:11:55;2.13;;;1.30;;
41689;SDS011;27372;42.658;23.256;2023-04-12T14:14:25;1.42;;;1.20;;
41689;SDS011;27372;42.658;23.256;2023-04-12T14:16:51;2.65;;;1.45;;
41689;SDS011;27372;42.658;23.256;2023-04-12T14:19:21;1.45;;;1.10;;
41689;SDS011;27372;42.658;23.256;2023-04-12T14:21:47;2.50;;;1.30;;
41689;SDS011;27372;42.658;23.256;2023-04-12T14:24:13;3.35;;;1.95;;
41689;SDS011;27372;42.658;23.256;2023-04-12T14:26:45;2.05;;;1.17;;
41689;SDS011;27372;42.658;23.256;2023-04-12T14:29:12;2.17;;;1.15;;
41689;SDS011;27372;42.658;23.256;2023-04-12T14:31:38;4.80;;;1.30;;
41689;SDS011;27372;42.658;23.256;2023-04-12T14:34:03;2.50;;;1.20;;
41689;SDS011;27372;42.658;23.256;2023-04-12T14:36:32;1.30;;;1.20;;
41689;SDS011;27372;42.658;23.256;2023-04-12T14:38:58;2.05;;;1.48;;
41689;SDS011;27372;42.658;23.256;2023-04-12T14:41:23;4.18;;;1.30;;
41689;SDS011;27372;42.658;23.256;2023-04-12T14:43:49;2.75;;;1.25;;
41689;SDS011;27372;42.658;23.256;2023-04-12T14:46:15;1.65;;;1.20;;
41689;SDS011;27372;42.658;23.256;2023-04-12T14:48:41;4.85;;;1.48;;
41689;SDS011;27372;42.658;23.256;2023-04-12T14:51:08;1.58;;;1.10;;
41689;SDS011;27372;42.658;23.256;2023-04-12T14:53:33;1.83;;;1.50;;
41689;SDS011;27372;42.658;23.256;2023-04-12T14:55:59;1.88;;;1.23;;
41689;SDS011;27372;42.658;23.256;2023-04-12T14:58:26;4.45;;;1.38;;
41689;SDS011;27372;42.658;23.256;2023-04-12T15:00:56;3.22;;;1.20;;
41689;SDS011;27372;42.658;23.256;2023-04-12T15:03:22;3.10;;;1.33;;